createdAt,value
2022-11-28T00:01:25.971Z,29.48
2022-11-28T00:03:56.404Z,26.60
2022-11-28T00:06:23.899Z,28.48
2022-11-28T00:08:54.607Z,25.70
2022-11-28T00:11:21.993Z,24.65
2022-11-28T00:13:49.477Z,29.25
2022-11-28T00:16:20.437Z,26.13
2022-11-28T00:18:47.980Z,29.42
2022-11-28T00:21:16.003Z,26.88
2022-11-28T00:23:43.984Z,28.60
2022-11-28T00:26:31.003Z,28.08
2022-11-28T00:28:58.444Z,30.08
2022-11-28T00:31:27.352Z,31.60
2022-11-28T00:33:54.704Z,32.90
2022-11-28T00:36:22.541Z,31.95
2022-11-28T00:38:50.406Z,30.58
2022-11-28T00:41:18.964Z,32.58
2022-11-28T00:43:46.854Z,30.00
2022-11-28T00:46:15.078Z,31.73
2022-11-28T00:48:42.418Z,32.50
2022-11-28T00:51:13.885Z,32.72
2022-11-28T00:53:42.653Z,29.23
2022-11-28T00:56:11.432Z,34.40
2022-11-28T00:58:39.142Z,29.40
2022-11-28T01:01:13.826Z,25.58
2022-11-28T01:03:41.844Z,26.88
2022-11-28T01:06:09.496Z,31.95
2022-11-28T01:08:38.210Z,31.02
2022-11-28T01:11:11.475Z,32.43
2022-11-28T01:13:38.784Z,31.58
2022-11-28T01:16:06.389Z,31.45
2022-11-28T01:18:33.702Z,30.42
2022-11-28T01:21:00.969Z,27.85
2022-11-28T01:23:28.228Z,29.13
2022-11-28T01:25:55.532Z,33.55
2022-11-28T01:28:22.822Z,29.02
2022-11-28T01:30:50.060Z,30.52
2022-11-28T01:33:17.476Z,31.42
2022-11-28T01:35:54.235Z,29.38
2022-11-28T01:38:21.540Z,28.77
2022-11-28T01:40:48.825Z,29.95
2022-11-28T01:43:16.189Z,28.60
2022-11-28T01:45:43.475Z,28.02
2022-11-28T01:48:12.413Z,31.08
2022-11-28T01:50:39.685Z,26.33
2022-11-28T01:53:07.562Z,28.35
2022-11-28T01:55:38.550Z,28.42
2022-11-28T01:58:06.059Z,35.63
2022-11-28T02:00:36.139Z,31.92
2022-11-28T02:03:09.410Z,31.77
2022-11-28T02:05:37.134Z,31.77
2022-11-28T02:08:04.442Z,31.70
2022-11-28T02:10:59.699Z,33.20
2022-11-28T02:13:44.988Z,32.38
2022-11-28T02:16:12.330Z,31.00
2022-11-28T02:18:58.420Z,37.00
2022-11-28T02:21:36.714Z,29.48
2022-11-28T02:24:33.939Z,34.63
2022-11-28T02:27:10.477Z,31.73
2022-11-28T02:29:43.549Z,32.00
2022-11-28T02:32:10.814Z,30.80
2022-11-28T02:34:37.991Z,34.35
2022-11-28T02:37:13.480Z,34.95
2022-11-28T02:39:43.509Z,32.30
2022-11-28T02:42:23.328Z,30.35
2022-11-28T02:44:58.869Z,35.58
2022-11-28T02:47:37.994Z,36.25
2022-11-28T02:50:05.192Z,34.92
2022-11-28T02:52:35.463Z,32.80
2022-11-28T02:55:02.809Z,31.20
2022-11-28T02:57:35.549Z,30.50
2022-11-28T03:00:03.127Z,34.33
2022-11-28T03:02:31.129Z,33.10
2022-11-28T03:05:04.586Z,31.70
2022-11-28T03:07:31.896Z,31.20
2022-11-28T03:09:59.271Z,26.92
2022-11-28T03:12:34.407Z,29.23
2022-11-28T03:15:04.228Z,25.73
2022-11-28T03:17:53.170Z,28.40
2022-11-28T03:20:46.581Z,26.10
2022-11-28T03:23:18.474Z,26.25
2022-11-28T03:25:55.101Z,22.92
2022-11-28T03:28:26.480Z,26.50
2022-11-28T03:30:58.069Z,24.52
2022-11-28T03:33:26.516Z,27.17
2022-11-28T03:35:56.998Z,27.40
2022-11-28T03:38:35.603Z,29.17
2022-11-28T03:41:06.281Z,27.77
2022-11-28T03:43:36.215Z,27.42
2022-11-28T03:46:06.864Z,32.58
2022-11-28T03:48:36.820Z,33.38
2022-11-28T03:51:08.059Z,30.23
2022-11-28T03:53:41.109Z,33.35
2022-11-28T03:56:12.174Z,34.95
2022-11-28T03:58:53.365Z,37.70
2022-11-28T04:01:28.177Z,33.20
2022-11-28T04:04:15.538Z,32.75
2022-11-28T04:06:51.736Z,37.40
2022-11-28T04:09:20.701Z,34.38
2022-11-28T04:11:54.657Z,33.10
2022-11-28T04:14:29.447Z,36.88
2022-11-28T04:17:08.875Z,38.28
2022-11-28T04:19:42.356Z,40.72
2022-11-28T04:22:16.116Z,42.42
2022-11-28T04:24:48.662Z,43.63
2022-11-28T04:27:19.383Z,42.60
2022-11-28T04:29:48.984Z,40.97
2022-11-28T04:32:19.318Z,41.40
2022-11-28T04:34:47.883Z,41.70
2022-11-28T04:37:16.165Z,42.90
2022-11-28T04:39:45.216Z,41.28
2022-11-28T04:42:14.420Z,38.40
2022-11-28T04:44:50.972Z,32.17
2022-11-28T04:47:18.443Z,39.50
2022-11-28T04:49:45.764Z,47.42
2022-11-28T04:52:25.310Z,43.58
2022-11-28T04:54:56.823Z,43.70
2022-11-28T04:57:23.980Z,36.97
2022-11-28T04:59:51.617Z,45.17
2022-11-28T05:02:19.869Z,45.90
2022-11-28T05:04:47.513Z,42.97
2022-11-28T05:07:14.868Z,42.97
2022-11-28T05:09:42.186Z,47.63
2022-11-28T05:12:09.432Z,52.75
2022-11-28T05:14:36.761Z,43.90
2022-11-28T05:17:03.970Z,47.92
2022-11-28T05:19:31.222Z,47.50
2022-11-28T05:21:58.479Z,46.33
2022-11-28T05:24:30.752Z,47.38
2022-11-28T05:26:59.733Z,44.00
2022-11-28T05:29:26.922Z,46.00
2022-11-28T05:31:54.341Z,52.10
2022-11-28T05:34:21.660Z,50.95
2022-11-28T05:36:48.920Z,51.97
2022-11-28T05:39:16.429Z,47.75
2022-11-28T05:41:46.210Z,49.75
2022-11-28T05:44:13.378Z,47.65
2022-11-28T05:46:40.582Z,50.20
2022-11-28T05:49:07.849Z,43.40
2022-11-28T05:51:35.238Z,49.35
2022-11-28T05:54:02.385Z,47.70
2022-11-28T05:56:29.826Z,43.25
2022-11-28T05:58:57.119Z,40.70
2022-11-28T06:01:29.583Z,45.75
2022-11-28T06:04:01.054Z,45.08
2022-11-28T06:06:29.829Z,43.13
2022-11-28T06:08:57.387Z,35.17
2022-11-28T06:11:25.454Z,43.60
2022-11-28T06:13:52.986Z,44.38
2022-11-28T06:16:21.589Z,45.42
2022-11-28T06:18:48.974Z,47.50
2022-11-28T06:21:16.349Z,48.05
2022-11-28T06:23:43.551Z,49.38
2022-11-28T06:26:11.973Z,49.92
2022-11-28T06:28:39.651Z,51.58
2022-11-28T06:31:11.205Z,50.53
2022-11-28T06:33:38.653Z,54.30
2022-11-28T06:36:06.908Z,52.53
2022-11-28T06:38:34.567Z,66.30
2022-11-28T06:41:03.356Z,60.45
2022-11-28T06:43:30.621Z,63.10
2022-11-28T06:45:58.011Z,59.10
2022-11-28T06:48:25.537Z,57.15
2022-11-28T06:50:52.812Z,61.05
2022-11-28T06:53:20.353Z,60.03
2022-11-28T06:55:47.660Z,61.03
2022-11-28T06:58:15.271Z,63.50
2022-11-28T07:00:42.612Z,60.47
2022-11-28T07:03:09.943Z,64.07
2022-11-28T07:05:37.145Z,62.72
2022-11-28T07:08:04.503Z,61.05
2022-11-28T07:10:31.811Z,61.03
2022-11-28T07:13:04.945Z,71.45
2022-11-28T07:15:32.751Z,70.00
2022-11-28T07:18:00.184Z,61.40
2022-11-28T07:20:27.468Z,68.35
2022-11-28T07:22:54.779Z,69.40
2022-11-28T07:25:22.071Z,79.57
2022-11-28T07:27:49.280Z,82.70
2022-11-28T07:30:16.539Z,74.57
2022-11-28T07:32:43.755Z,87.22
2022-11-28T07:35:12.201Z,72.88
2022-11-28T07:37:39.402Z,95.70
2022-11-28T07:40:09.476Z,89.88
2022-11-28T07:42:36.885Z,88.57
2022-11-28T07:45:04.710Z,82.13
2022-11-28T07:47:34.064Z,85.10
2022-11-28T07:50:01.305Z,80.43
2022-11-28T07:52:28.549Z,94.10
2022-11-28T07:54:55.804Z,87.82
2022-11-28T07:57:23.161Z,84.22
2022-11-28T07:59:50.478Z,105.22
2022-11-28T08:02:17.814Z,103.63
2022-11-28T08:04:50.425Z,97.20
2022-11-28T08:07:20.277Z,91.65
2022-11-28T08:09:47.679Z,100.20
2022-11-28T08:12:14.990Z,101.35
2022-11-28T08:14:42.562Z,99.70
2022-11-28T08:17:10.132Z,99.13
2022-11-28T08:19:37.330Z,103.30
2022-11-28T08:22:04.654Z,102.05
2022-11-28T08:24:31.936Z,104.32
2022-11-28T08:26:59.249Z,107.53
2022-11-28T08:29:26.591Z,111.18
2022-11-28T08:31:54.018Z,111.80
2022-11-28T08:34:22.171Z,125.45
2022-11-28T08:36:50.184Z,111.22
2022-11-28T08:39:25.415Z,119.05
2022-11-28T08:41:54.228Z,115.28
2022-11-28T08:44:21.602Z,123.72
2022-11-28T08:46:48.957Z,124.05
2022-11-28T08:49:16.164Z,105.82
2022-11-28T08:51:43.445Z,114.97
2022-11-28T08:54:10.728Z,115.28
2022-11-28T08:56:37.996Z,129.70
2022-11-28T08:59:05.329Z,146.02
2022-11-28T09:01:32.711Z,120.47
2022-11-28T09:04:00.351Z,129.65
2022-11-28T09:06:27.681Z,132.90
2022-11-28T09:08:54.957Z,154.25
2022-11-28T09:11:23.016Z,135.82
2022-11-28T09:13:50.617Z,181.48
2022-11-28T09:16:18.077Z,129.80
2022-11-28T09:18:45.430Z,163.60
2022-11-28T09:21:13.892Z,147.73
2022-11-28T09:23:42.009Z,147.80
2022-11-28T09:26:10.390Z,189.93
2022-11-28T09:28:37.852Z,151.45
2022-11-28T09:31:06.139Z,150.05
2022-11-28T09:33:36.025Z,167.40
2022-11-28T09:36:07.291Z,179.98
2022-11-28T09:38:34.624Z,158.90
2022-11-28T09:41:02.731Z,144.05
2022-11-28T09:43:30.114Z,178.60
2022-11-28T09:45:58.416Z,151.68
2022-11-28T09:48:37.443Z,145.63
2022-11-28T09:51:10.496Z,149.93
2022-11-28T09:53:41.137Z,149.88
2022-11-28T09:56:14.614Z,151.73
2022-11-28T09:58:41.836Z,169.05
2022-11-28T10:01:28.134Z,160.05
2022-11-28T10:04:04.758Z,163.02
2022-11-28T10:06:38.735Z,159.55
2022-11-28T10:09:21.528Z,153.93
2022-11-28T10:12:04.115Z,154.98
2022-11-28T10:14:31.297Z,162.50
2022-11-28T10:17:04.827Z,160.73
2022-11-28T10:19:56.751Z,149.45
2022-11-28T10:22:39.961Z,157.45
2022-11-28T10:25:12.434Z,154.65
2022-11-28T10:27:40.543Z,158.02
2022-11-28T10:30:11.033Z,151.10
2022-11-28T10:32:43.143Z,158.45
2022-11-28T10:35:28.575Z,164.75
2022-11-28T10:37:56.206Z,160.93
2022-11-28T10:40:29.722Z,161.02
2022-11-28T10:43:03.128Z,158.40
2022-11-28T10:45:44.704Z,169.40
2022-11-28T10:48:40.333Z,171.27
2022-11-28T10:51:17.191Z,154.77
2022-11-28T10:53:47.574Z,175.80
2022-11-28T10:56:22.205Z,177.95
2022-11-28T10:59:02.878Z,157.07
2022-11-28T11:01:32.273Z,162.38
2022-11-28T11:03:59.707Z,170.68
2022-11-28T11:06:32.679Z,151.95
2022-11-28T11:09:08.995Z,152.40
2022-11-28T11:11:39.864Z,156.90
2022-11-28T11:14:12.983Z,162.48
2022-11-28T11:16:50.633Z,136.65
2022-11-28T11:19:23.840Z,151.05
2022-11-28T11:22:03.564Z,143.73
2022-11-28T11:27:18.387Z,145.00
2022-11-28T11:29:49.250Z,137.20
2022-11-28T11:32:26.185Z,125.20
2022-11-28T11:34:54.522Z,137.63
2022-11-28T11:37:31.925Z,128.93
2022-11-28T11:39:59.483Z,144.60
2022-11-28T11:42:27.965Z,135.95
2022-11-28T11:44:55.644Z,130.75
2022-11-28T11:47:42.328Z,133.20
2022-11-28T11:50:19.851Z,130.23
2022-11-28T11:53:03.616Z,128.07
2022-11-28T11:55:32.780Z,131.55
2022-11-28T11:58:05.478Z,134.88
2022-11-28T12:00:35.616Z,118.18
2022-11-28T12:03:13.213Z,136.48
2022-11-28T12:06:12.633Z,127.57
2022-11-28T12:08:41.099Z,122.05
2022-11-28T12:11:11.154Z,129.20
2022-11-28T12:13:38.497Z,129.98
2022-11-28T12:16:25.934Z,129.45
2022-11-28T12:19:11.185Z,127.82
2022-11-28T12:21:50.825Z,126.20
2022-11-28T12:26:47.540Z,124.72
2022-11-28T12:32:02.182Z,117.75
2022-11-28T12:34:38.478Z,130.35
2022-11-28T12:37:05.727Z,125.60
2022-11-28T12:39:39.394Z,126.30
2022-11-28T12:42:32.829Z,113.03
2022-11-28T12:45:20.229Z,123.32
2022-11-28T12:47:53.665Z,110.28
2022-11-28T12:50:20.878Z,124.43
2022-11-28T12:53:17.542Z,120.55
2022-11-28T12:56:07.827Z,118.97
2022-11-28T12:58:39.657Z,109.10
2022-11-28T13:01:25.605Z,109.57
2022-11-28T13:04:11.876Z,105.22
2022-11-28T13:06:39.175Z,115.72
2022-11-28T13:09:09.579Z,114.05
2022-11-28T13:11:47.321Z,115.75
2022-11-28T13:14:14.538Z,119.70
2022-11-28T13:17:11.225Z,127.00
2022-11-28T13:19:44.194Z,113.25
2022-11-28T13:22:33.606Z,113.28
2022-11-28T13:25:08.826Z,123.93
2022-11-28T13:27:48.350Z,121.10
2022-11-28T13:30:18.559Z,122.45
2022-11-28T13:32:46.215Z,126.03
2022-11-28T13:35:18.201Z,116.43
2022-11-28T13:40:42.035Z,117.78
2022-11-28T13:43:18.469Z,115.55
2022-11-28T13:45:46.614Z,123.65
2022-11-28T13:48:57.478Z,154.55
2022-11-28T13:51:28.617Z,153.65
2022-11-28T13:54:16.697Z,121.70
2022-11-28T13:56:45.889Z,112.07
2022-11-28T13:59:19.793Z,118.00
2022-11-28T14:01:49.191Z,119.22
2022-11-28T14:04:17.972Z,117.47
2022-11-28T14:06:52.166Z,104.50
2022-11-28T14:09:26.056Z,111.68
2022-11-28T14:11:56.340Z,103.75
2022-11-28T14:17:37.355Z,111.63
2022-11-28T14:22:52.818Z,106.20
2022-11-28T14:25:24.750Z,103.07
2022-11-28T14:28:03.693Z,96.78
2022-11-28T14:30:51.667Z,108.63
2022-11-28T14:33:33.583Z,97.68
2022-11-28T14:36:04.512Z,101.60
2022-11-28T14:38:31.822Z,124.15
2022-11-28T14:41:03.186Z,125.20
2022-11-28T14:43:35.104Z,95.22
2022-11-28T14:46:23.018Z,99.15
2022-11-28T14:48:59.779Z,100.10
2022-11-28T14:52:00.144Z,171.57
2022-11-28T14:54:43.547Z,109.28
2022-11-28T14:57:25.588Z,101.35
2022-11-28T14:59:53.786Z,94.82
2022-11-28T15:02:35.071Z,91.00
2022-11-28T15:05:40.903Z,81.03
2022-11-28T15:08:17.542Z,91.57
2022-11-28T15:10:51.459Z,98.57
2022-11-28T15:13:37.757Z,87.53
2022-11-28T15:16:11.423Z,79.78
2022-11-28T15:18:40.844Z,90.95
2022-11-28T15:21:12.424Z,85.22
2022-11-28T15:23:39.816Z,82.88
2022-11-28T15:26:07.703Z,88.65
2022-11-28T15:28:36.130Z,85.05
2022-11-28T15:31:05.775Z,83.97
2022-11-28T15:33:34.167Z,86.82
2022-11-28T15:36:10.644Z,83.03
2022-11-28T15:38:38.646Z,85.32
2022-11-28T15:41:08.642Z,80.88
2022-11-28T15:43:37.357Z,86.38
2022-11-28T15:46:05.928Z,90.75
2022-11-28T15:48:39.415Z,86.05
2022-11-28T15:51:08.254Z,77.63
2022-11-28T15:53:40.828Z,75.10
2022-11-28T15:56:13.209Z,69.15
2022-11-28T15:58:40.718Z,70.88
2022-11-28T16:01:11.549Z,78.38
2022-11-28T16:03:48.418Z,71.38
2022-11-28T16:06:16.036Z,71.88
2022-11-28T16:08:52.500Z,80.82
2022-11-28T16:11:21.328Z,78.50
2022-11-28T16:13:48.915Z,79.00
2022-11-28T16:16:18.549Z,71.35
2022-11-28T16:21:16.231Z,76.30
2022-11-28T16:23:43.742Z,91.72
2022-11-28T16:26:22.586Z,175.57
2022-11-28T16:28:59.040Z,225.27
2022-11-28T16:31:29.701Z,315.08
2022-11-28T16:33:57.444Z,200.45
2022-11-28T16:36:34.367Z,101.47
2022-11-28T16:39:21.890Z,315.23
2022-11-28T16:41:52.049Z,183.85
2022-11-28T16:44:23.923Z,168.50
2022-11-28T16:46:52.907Z,138.63
2022-11-28T16:49:32.289Z,226.48
2022-11-28T16:52:18.482Z,183.15
2022-11-28T16:54:45.753Z,139.50
2022-11-28T16:57:16.979Z,245.90
2022-11-28T16:59:44.983Z,101.63
2022-11-28T17:02:13.828Z,122.10
2022-11-28T17:04:41.442Z,83.10
2022-11-28T17:07:14.040Z,87.22
2022-11-28T17:09:42.257Z,100.30
2022-11-28T17:12:26.798Z,183.60
2022-11-28T17:14:54.589Z,215.90
2022-11-28T17:17:23.367Z,129.20
2022-11-28T17:19:51.038Z,89.78
2022-11-28T17:22:20.480Z,118.00
2022-11-28T17:24:48.835Z,58.35
2022-11-28T17:27:16.399Z,70.13
2022-11-28T17:29:44.138Z,63.15
2022-11-28T17:32:13.482Z,90.82
2022-11-28T17:34:46.046Z,109.35
2022-11-28T17:37:13.582Z,83.93
2022-11-28T17:40:00.820Z,85.07
2022-11-28T17:42:28.108Z,72.43
2022-11-28T17:44:56.782Z,75.50
2022-11-28T17:47:24.337Z,57.37
2022-11-28T17:49:52.053Z,63.03
2022-11-28T17:52:20.797Z,84.63
2022-11-28T17:54:48.095Z,70.05
2022-11-28T17:57:15.459Z,71.43
2022-11-28T17:59:43.373Z,92.80
2022-11-28T18:02:11.700Z,76.68
2022-11-28T18:04:39.057Z,88.13
2022-11-28T18:07:06.431Z,95.95
2022-11-28T18:09:33.691Z,85.25
2022-11-28T18:12:01.121Z,68.88
2022-11-28T18:14:29.078Z,77.03
2022-11-28T18:16:57.523Z,62.80
2022-11-28T18:19:25.038Z,54.45
2022-11-28T18:21:53.242Z,61.78
2022-11-28T18:24:23.792Z,58.80
2022-11-28T18:26:52.968Z,58.15
2022-11-28T18:29:20.919Z,59.65
2022-11-28T18:31:48.963Z,78.32
2022-11-28T18:34:16.959Z,62.53
2022-11-28T18:36:45.224Z,77.57
2022-11-28T18:39:14.312Z,76.10
2022-11-28T18:41:41.771Z,56.47
2022-11-28T18:44:10.772Z,67.72
2022-11-28T18:46:39.776Z,97.45
2022-11-28T18:49:08.254Z,69.10
2022-11-28T18:51:36.784Z,55.42
2022-11-28T18:54:07.167Z,59.38
2022-11-28T18:56:35.672Z,53.78
2022-11-28T18:59:04.174Z,49.45
2022-11-28T19:01:32.709Z,50.38
2022-11-28T19:04:04.472Z,61.72
2022-11-28T19:06:31.927Z,53.08
2022-11-28T19:09:00.214Z,65.88
2022-11-28T19:11:28.742Z,64.75
2022-11-28T19:13:57.391Z,69.38
2022-11-28T19:16:25.937Z,86.78
2022-11-28T19:18:53.254Z,89.68
2022-11-28T19:21:21.768Z,81.05
2022-11-28T19:23:49.776Z,81.70
2022-11-28T19:26:18.406Z,124.03
2022-11-28T19:28:46.037Z,93.75
2022-11-28T19:31:16.559Z,102.45
2022-11-28T19:33:44.594Z,106.65
2022-11-28T19:36:13.439Z,106.75
2022-11-28T19:38:41.667Z,163.48
2022-11-28T19:41:09.671Z,153.55
2022-11-28T19:43:37.093Z,108.93
2022-11-28T19:46:05.158Z,146.05
2022-11-28T19:48:34.565Z,182.88
2022-11-28T19:51:03.819Z,133.70
2022-11-28T19:53:32.183Z,156.63
2022-11-28T19:56:03.035Z,121.47
2022-11-28T19:58:35.337Z,134.02
2022-11-28T20:01:07.182Z,136.43
2022-11-28T20:03:35.620Z,142.65
2022-11-28T20:06:03.546Z,203.43
2022-11-28T20:08:30.836Z,206.15
2022-11-28T20:10:58.179Z,163.57
2022-11-28T20:13:25.493Z,189.45
2022-11-28T20:15:52.705Z,150.27
2022-11-28T20:18:20.072Z,146.25
2022-11-28T20:20:47.321Z,152.57
2022-11-28T20:23:14.863Z,153.43
2022-11-28T20:25:43.151Z,162.05
2022-11-28T20:28:10.931Z,168.40
2022-11-28T20:30:38.171Z,168.75
2022-11-28T20:33:05.467Z,156.07
2022-11-28T20:35:32.776Z,157.73
2022-11-28T20:38:00.431Z,169.18
2022-11-28T20:40:27.770Z,139.93
2022-11-28T20:42:55.081Z,148.73
2022-11-28T20:45:22.402Z,155.07
2022-11-28T20:47:50.151Z,156.80
2022-11-28T20:50:17.637Z,163.38
2022-11-28T20:52:44.941Z,160.15
2022-11-28T20:55:12.231Z,146.80
2022-11-28T20:57:39.553Z,145.70
2022-11-28T21:00:07.246Z,157.25
2022-11-28T21:02:34.724Z,138.80
2022-11-28T21:05:02.056Z,146.65
2022-11-28T21:07:30.947Z,191.20
2022-11-28T21:10:03.733Z,174.50
2022-11-28T21:12:31.074Z,160.35
2022-11-28T21:14:58.330Z,216.15
2022-11-28T21:17:25.634Z,222.90
2022-11-28T21:19:52.952Z,162.05
2022-11-28T21:22:20.257Z,234.10
2022-11-28T21:24:50.558Z,161.48
2022-11-28T21:27:18.994Z,204.75
2022-11-28T21:29:49.299Z,141.02
2022-11-28T21:32:17.792Z,150.25
2022-11-28T21:34:45.216Z,162.70
2022-11-28T21:37:12.606Z,179.20
2022-11-28T21:39:39.837Z,262.55
2022-11-28T21:42:11.733Z,220.35
2022-11-28T21:44:43.825Z,142.68
2022-11-28T21:47:11.287Z,129.40
2022-11-28T21:49:39.018Z,142.10
2022-11-28T21:52:09.444Z,163.23
2022-11-28T21:54:36.774Z,280.58
2022-11-28T21:57:04.106Z,140.75
2022-11-28T21:59:32.459Z,155.25
2022-11-28T22:02:00.152Z,129.45
2022-11-28T22:04:27.931Z,146.60
2022-11-28T22:06:55.182Z,172.77
2022-11-28T22:09:22.876Z,236.85
2022-11-28T22:11:50.188Z,175.30
2022-11-28T22:14:17.915Z,220.55
2022-11-28T22:16:45.100Z,218.93
2022-11-28T22:19:12.501Z,136.43
2022-11-28T22:21:56.419Z,158.07
2022-11-28T22:24:24.260Z,148.48
2022-11-28T22:26:51.689Z,173.13
2022-11-28T22:29:19.202Z,148.93
2022-11-28T22:31:46.734Z,166.20
2022-11-28T22:34:14.070Z,148.43
2022-11-28T22:36:41.340Z,136.25
2022-11-28T22:39:10.394Z,147.27
2022-11-28T22:41:37.853Z,160.63
2022-11-28T22:44:05.269Z,163.38
2022-11-28T22:46:33.489Z,142.85
2022-11-28T22:49:01.479Z,154.13
2022-11-28T22:51:29.595Z,215.13
2022-11-28T22:53:58.185Z,136.38
2022-11-28T22:56:27.659Z,138.13
2022-11-28T22:58:55.099Z,164.25
2022-11-28T23:01:28.491Z,153.27
2022-11-28T23:03:55.999Z,139.80
2022-11-28T23:06:25.680Z,171.02
2022-11-28T23:08:55.981Z,193.82
2022-11-28T23:11:26.950Z,106.70
2022-11-28T23:13:54.496Z,141.38
2022-11-28T23:16:24.534Z,282.17
2022-11-28T23:18:53.642Z,169.30
2022-11-28T23:21:21.542Z,339.08
2022-11-28T23:23:48.888Z,200.80
2022-11-28T23:26:18.314Z,329.80
2022-11-28T23:28:45.765Z,244.55
2022-11-28T23:31:13.467Z,178.48
2022-11-28T23:33:42.055Z,280.40
2022-11-28T23:36:20.486Z,218.48
2022-11-28T23:38:49.291Z,175.13
2022-11-28T23:41:16.859Z,243.95
2022-11-28T23:43:44.119Z,216.73
2022-11-28T23:46:11.863Z,211.35
2022-11-28T23:48:39.444Z,93.53
2022-11-28T23:51:07.322Z,109.03
2022-11-28T23:53:35.009Z,101.60
2022-11-28T23:56:06.137Z,167.75
2022-11-28T23:58:34.236Z,153.70
